Terminal Aerodrome Forecast
Issued by NWS Mt. Holly, NJ

Home | Current Version | Previous Version | Text Only | Print | Product List | Glossary On
Versions: 1 2 3 4 5 6 7 8 9 10 11 12 13 14 15 16 17 18 19 20 21 22
000
FTUS41 KPHI 300538
TAFABE
TAF
KABE 300538Z 3006/0106 02004KT P6SM SCT250
     FM301000 06006KT P6SM BKN040
      TEMPO 3012/3014 -SHRA
     FM301600 10006KT P6SM BKN035
     FM302200 10008KT P6SM OVC025
     FM010000 10008KT P6SM OVC015
     FM010300 10010KT 4SM BR OVC007=

USA.gov is the U.S. government's official web portal to all federal, state and local government web resources and services.